sensor_id;sensor_type;location;lat;lon;timestamp;P1;durP1;ratioP1;P2;durP2;ratioP2
26486;SDS011;14425;56.136;40.360;2023-11-18T00:02:20;3.63;;;1.42;;
26486;SDS011;14425;56.136;40.360;2023-11-18T00:04:45;5.18;;;0.90;;
26486;SDS011;14425;56.136;40.360;2023-11-18T00:07:10;3.53;;;1.40;;
26486;SDS011;14425;56.136;40.360;2023-11-18T00:09:36;2.25;;;1.13;;
26486;SDS011;14425;56.136;40.360;2023-11-18T00:12:02;4.00;;;1.30;;
26486;SDS011;14425;56.136;40.360;2023-11-18T00:14:29;5.78;;;1.58;;
26486;SDS011;14425;56.136;40.360;2023-11-18T00:16:54;3.38;;;1.27;;
26486;SDS011;14425;56.136;40.360;2023-11-18T00:19:20;2.75;;;1.50;;
26486;SDS011;14425;56.136;40.360;2023-11-18T00:21:45;2.78;;;0.85;;
26486;SDS011;14425;56.136;40.360;2023-11-18T00:24:11;3.17;;;1.83;;
26486;SDS011;14425;56.136;40.360;2023-11-18T00:26:36;2.30;;;1.20;;
26486;SDS011;14425;56.136;40.360;2023-11-18T00:29:02;2.60;;;1.20;;
26486;SDS011;14425;56.136;40.360;2023-11-18T00:31:27;3.33;;;1.20;;
26486;SDS011;14425;56.136;40.360;2023-11-18T00:33:53;1.77;;;1.33;;
26486;SDS011;14425;56.136;40.360;2023-11-18T00:36:18;3.63;;;1.70;;
26486;SDS011;14425;56.136;40.360;2023-11-18T00:38:43;3.90;;;1.48;;
26486;SDS011;14425;56.136;40.360;2023-11-18T00:41:09;2.95;;;1.65;;
26486;SDS011;14425;56.136;40.360;2023-11-18T00:43:35;6.20;;;1.58;;
26486;SDS011;14425;56.136;40.360;2023-11-18T00:46:00;4.97;;;1.20;;
26486;SDS011;14425;56.136;40.360;2023-11-18T00:48:26;3.03;;;1.40;;
26486;SDS011;14425;56.136;40.360;2023-11-18T00:50:52;2.05;;;1.23;;
26486;SDS011;14425;56.136;40.360;2023-11-18T00:53:17;2.20;;;1.30;;
26486;SDS011;14425;56.136;40.360;2023-11-18T00:55:43;3.28;;;1.30;;
26486;SDS011;14425;56.136;40.360;2023-11-18T00:58:09;4.28;;;1.42;;
26486;SDS011;14425;56.136;40.360;2023-11-18T01:00:34;3.83;;;1.55;;
26486;SDS011;14425;56.136;40.360;2023-11-18T01:03:01;2.17;;;1.23;;
26486;SDS011;14425;56.136;40.360;2023-11-18T01:05:27;3.17;;;1.20;;
26486;SDS011;14425;56.136;40.360;2023-11-18T01:07:52;1.73;;;1.35;;
26486;SDS011;14425;56.136;40.360;2023-11-18T01:10:18;2.13;;;1.50;;
26486;SDS011;14425;56.136;40.360;2023-11-18T01:12:44;3.05;;;1.15;;
26486;SDS011;14425;56.136;40.360;2023-11-18T01:15:10;3.90;;;1.40;;
26486;SDS011;14425;56.136;40.360;2023-11-18T01:17:36;5.30;;;1.58;;
26486;SDS011;14425;56.136;40.360;2023-11-18T01:20:01;2.65;;;1.88;;
26486;SDS011;14425;56.136;40.360;2023-11-18T01:22:33;2.67;;;1.65;;
26486;SDS011;14425;56.136;40.360;2023-11-18T01:25:00;3.30;;;1.77;;
26486;SDS011;14425;56.136;40.360;2023-11-18T01:27:26;3.17;;;1.55;;
26486;SDS011;14425;56.136;40.360;2023-11-18T01:29:52;5.22;;;1.70;;
26486;SDS011;14425;56.136;40.360;2023-11-18T01:32:18;2.25;;;1.60;;
26486;SDS011;14425;56.136;40.360;2023-11-18T01:34:44;2.95;;;1.70;;
26486;SDS011;14425;56.136;40.360;2023-11-18T01:37:15;2.28;;;1.65;;
26486;SDS011;14425;56.136;40.360;2023-11-18T01:39:41;2.08;;;1.50;;
26486;SDS011;14425;56.136;40.360;2023-11-18T01:42:06;5.18;;;2.05;;
26486;SDS011;14425;56.136;40.360;2023-11-18T01:44:31;2.33;;;1.48;;
26486;SDS011;14425;56.136;40.360;2023-11-18T01:46:59;1.98;;;1.48;;
26486;SDS011;14425;56.136;40.360;2023-11-18T01:49:25;5.03;;;2.15;;
26486;SDS011;14425;56.136;40.360;2023-11-18T01:51:52;1.95;;;1.75;;
26486;SDS011;14425;56.136;40.360;2023-11-18T01:54:19;2.35;;;1.70;;
26486;SDS011;14425;56.136;40.360;2023-11-18T01:56:47;2.65;;;1.73;;
26486;SDS011;14425;56.136;40.360;2023-11-18T01:59:13;4.88;;;1.70;;
26486;SDS011;14425;56.136;40.360;2023-11-18T02:01:49;3.80;;;2.20;;
26486;SDS011;14425;56.136;40.360;2023-11-18T02:04:15;2.83;;;1.60;;
26486;SDS011;14425;56.136;40.360;2023-11-18T02:06:40;4.03;;;2.03;;
26486;SDS011;14425;56.136;40.360;2023-11-18T02:09:06;3.33;;;2.10;;
26486;SDS011;14425;56.136;40.360;2023-11-18T02:11:53;3.35;;;2.20;;
26486;SDS011;14425;56.136;40.360;2023-11-18T02:14:20;6.13;;;1.95;;
26486;SDS011;14425;56.136;40.360;2023-11-18T02:16:46;4.85;;;2.20;;
26486;SDS011;14425;56.136;40.360;2023-11-18T02:19:21;8.45;;;2.90;;
26486;SDS011;14425;56.136;40.360;2023-11-18T02:21:47;5.57;;;2.38;;
26486;SDS011;14425;56.136;40.360;2023-11-18T02:24:26;3.88;;;2.53;;
26486;SDS011;14425;56.136;40.360;2023-11-18T02:26:54;7.60;;;2.38;;
26486;SDS011;14425;56.136;40.360;2023-11-18T02:29:21;3.50;;;2.97;;
26486;SDS011;14425;56.136;40.360;2023-11-18T02:31:46;3.83;;;2.22;;
26486;SDS011;14425;56.136;40.360;2023-11-18T02:34:14;2.30;;;2.08;;
26486;SDS011;14425;56.136;40.360;2023-11-18T02:36:43;2.88;;;2.08;;
26486;SDS011;14425;56.136;40.360;2023-11-18T02:39:57;8.18;;;3.63;;
26486;SDS011;14425;56.136;40.360;2023-11-18T02:41:56;3.28;;;2.25;;
26486;SDS011;14425;56.136;40.360;2023-11-18T02:44:22;2.35;;;1.90;;
26486;SDS011;14425;56.136;40.360;2023-11-18T02:46:50;2.92;;;1.48;;
26486;SDS011;14425;56.136;40.360;2023-11-18T02:49:16;3.40;;;1.80;;
26486;SDS011;14425;56.136;40.360;2023-11-18T02:51:43;2.03;;;1.55;;
26486;SDS011;14425;56.136;40.360;2023-11-18T02:54:13;1.88;;;1.35;;
26486;SDS011;14425;56.136;40.360;2023-11-18T02:56:38;5.10;;;2.25;;
26486;SDS011;14425;56.136;40.360;2023-11-18T02:59:04;4.90;;;1.60;;
26486;SDS011;14425;56.136;40.360;2023-11-18T03:01:35;2.15;;;1.48;;
26486;SDS011;14425;56.136;40.360;2023-11-18T03:04:01;3.78;;;1.27;;
26486;SDS011;14425;56.136;40.360;2023-11-18T03:06:27;3.45;;;1.80;;
26486;SDS011;14425;56.136;40.360;2023-11-18T03:08:53;3.35;;;1.60;;
26486;SDS011;14425;56.136;40.360;2023-11-18T03:11:21;5.15;;;1.95;;
26486;SDS011;14425;56.136;40.360;2023-11-18T03:13:47;2.63;;;1.30;;
26486;SDS011;14425;56.136;40.360;2023-11-18T03:16:13;2.88;;;1.40;;
26486;SDS011;14425;56.136;40.360;2023-11-18T03:18:39;2.25;;;1.27;;
26486;SDS011;14425;56.136;40.360;2023-11-18T03:21:06;2.88;;;1.35;;
26486;SDS011;14425;56.136;40.360;2023-11-18T03:23:32;4.20;;;1.20;;
26486;SDS011;14425;56.136;40.360;2023-11-18T03:25:57;1.38;;;1.17;;
26486;SDS011;14425;56.136;40.360;2023-11-18T03:28:23;2.97;;;1.50;;
26486;SDS011;14425;56.136;40.360;2023-11-18T03:30:49;3.55;;;1.13;;
26486;SDS011;14425;56.136;40.360;2023-11-18T03:33:14;5.13;;;1.70;;
26486;SDS011;14425;56.136;40.360;2023-11-18T03:35:39;1.67;;;1.20;;
26486;SDS011;14425;56.136;40.360;2023-11-18T03:38:05;1.75;;;1.23;;
26486;SDS011;14425;56.136;40.360;2023-11-18T03:40:30;2.15;;;1.00;;
26486;SDS011;14425;56.136;40.360;2023-11-18T03:42:56;1.58;;;1.00;;
26486;SDS011;14425;56.136;40.360;2023-11-18T03:45:23;3.60;;;1.50;;
26486;SDS011;14425;56.136;40.360;2023-11-18T03:47:49;3.55;;;1.30;;
26486;SDS011;14425;56.136;40.360;2023-11-18T03:50:15;8.40;;;1.30;;
26486;SDS011;14425;56.136;40.360;2023-11-18T03:52:41;4.63;;;1.40;;
26486;SDS011;14425;56.136;40.360;2023-11-18T03:55:06;2.90;;;1.15;;
26486;SDS011;14425;56.136;40.360;2023-11-18T03:57:33;4.97;;;1.27;;
26486;SDS011;14425;56.136;40.360;2023-11-18T03:59:58;3.67;;;1.17;;
26486;SDS011;14425;56.136;40.360;2023-11-18T04:02:23;3.55;;;1.60;;
26486;SDS011;14425;56.136;40.360;2023-11-18T04:04:50;4.72;;;1.88;;
26486;SDS011;14425;56.136;40.360;2023-11-18T04:07:15;3.33;;;1.48;;
26486;SDS011;14425;56.136;40.360;2023-11-18T04:09:40;5.50;;;1.77;;
26486;SDS011;14425;56.136;40.360;2023-11-18T04:12:09;2.38;;;1.60;;
26486;SDS011;14425;56.136;40.360;2023-11-18T04:14:36;2.78;;;2.15;;
26486;SDS011;14425;56.136;40.360;2023-11-18T04:17:02;4.93;;;1.77;;
26486;SDS011;14425;56.136;40.360;2023-11-18T04:19:27;3.33;;;3.03;;
26486;SDS011;14425;56.136;40.360;2023-11-18T04:21:53;3.28;;;1.98;;
26486;SDS011;14425;56.136;40.360;2023-11-18T04:24:18;3.00;;;2.58;;
26486;SDS011;14425;56.136;40.360;2023-11-18T04:26:44;4.00;;;1.90;;
26486;SDS011;14425;56.136;40.360;2023-11-18T04:29:09;7.78;;;2.05;;
26486;SDS011;14425;56.136;40.360;2023-11-18T04:31:35;3.05;;;1.75;;
26486;SDS011;14425;56.136;40.360;2023-11-18T04:34:01;3.92;;;1.40;;
26486;SDS011;14425;56.136;40.360;2023-11-18T04:36:26;3.05;;;1.77;;
26486;SDS011;14425;56.136;40.360;2023-11-18T04:38:52;1.83;;;1.48;;
26486;SDS011;14425;56.136;40.360;2023-11-18T04:41:18;3.90;;;1.83;;
26486;SDS011;14425;56.136;40.360;2023-11-18T04:43:43;2.17;;;1.33;;
26486;SDS011;14425;56.136;40.360;2023-11-18T04:46:09;4.55;;;1.55;;
26486;SDS011;14425;56.136;40.360;2023-11-18T04:48:34;4.30;;;1.50;;
26486;SDS011;14425;56.136;40.360;2023-11-18T04:51:00;2.20;;;1.40;;
26486;SDS011;14425;56.136;40.360;2023-11-18T04:53:25;3.97;;;1.42;;
26486;SDS011;14425;56.136;40.360;2023-11-18T04:55:51;2.67;;;1.30;;
26486;SDS011;14425;56.136;40.360;2023-11-18T04:58:16;4.93;;;1.55;;
26486;SDS011;14425;56.136;40.360;2023-11-18T05:00:42;2.30;;;1.25;;
26486;SDS011;14425;56.136;40.360;2023-11-18T05:03:08;4.50;;;1.38;;
26486;SDS011;14425;56.136;40.360;2023-11-18T05:05:36;4.90;;;1.60;;
26486;SDS011;14425;56.136;40.360;2023-11-18T05:08:04;2.90;;;1.35;;
26486;SDS011;14425;56.136;40.360;2023-11-18T05:10:31;3.22;;;1.33;;
26486;SDS011;14425;56.136;40.360;2023-11-18T05:12:57;2.25;;;1.60;;
26486;SDS011;14425;56.136;40.360;2023-11-18T05:15:22;4.60;;;1.77;;
26486;SDS011;14425;56.136;40.360;2023-11-18T05:17:51;2.78;;;1.15;;
26486;SDS011;14425;56.136;40.360;2023-11-18T05:20:16;3.47;;;2.03;;
26486;SDS011;14425;56.136;40.360;2023-11-18T05:22:43;2.45;;;1.60;;
26486;SDS011;14425;56.136;40.360;2023-11-18T05:25:08;1.85;;;1.13;;
26486;SDS011;14425;56.136;40.360;2023-11-18T05:27:35;3.53;;;1.38;;
26486;SDS011;14425;56.136;40.360;2023-11-18T05:30:00;3.25;;;1.95;;
26486;SDS011;14425;56.136;40.360;2023-11-18T05:32:27;3.88;;;1.50;;
26486;SDS011;14425;56.136;40.360;2023-11-18T05:34:52;5.57;;;1.55;;
26486;SDS011;14425;56.136;40.360;2023-11-18T05:37:19;5.60;;;1.90;;
26486;SDS011;14425;56.136;40.360;2023-11-18T05:39:45;3.55;;;1.65;;
26486;SDS011;14425;56.136;40.360;2023-11-18T05:42:11;3.88;;;1.75;;
26486;SDS011;14425;56.136;40.360;2023-11-18T05:44:37;4.20;;;1.98;;
26486;SDS011;14425;56.136;40.360;2023-11-18T05:47:07;3.25;;;1.70;;
26486;SDS011;14425;56.136;40.360;2023-11-18T05:49:33;2.40;;;1.90;;
26486;SDS011;14425;56.136;40.360;2023-11-18T05:51:59;3.80;;;1.75;;
26486;SDS011;14425;56.136;40.360;2023-11-18T05:54:24;10.38;;;2.38;;
26486;SDS011;14425;56.136;40.360;2023-11-18T05:56:49;4.93;;;2.40;;
26486;SDS011;14425;56.136;40.360;2023-11-18T05:59:15;4.20;;;2.05;;
26486;SDS011;14425;56.136;40.360;2023-11-18T06:01:41;3.88;;;2.22;;
26486;SDS011;14425;56.136;40.360;2023-11-18T06:04:06;7.68;;;2.05;;
26486;SDS011;14425;56.136;40.360;2023-11-18T06:06:35;7.13;;;2.58;;
26486;SDS011;14425;56.136;40.360;2023-11-18T06:09:02;3.38;;;2.20;;
26486;SDS011;14425;56.136;40.360;2023-11-18T06:14:00;7.75;;;2.67;;
26486;SDS011;14425;56.136;40.360;2023-11-18T06:16:25;6.85;;;2.40;;
26486;SDS011;14425;56.136;40.360;2023-11-18T06:18:52;5.65;;;2.40;;
26486;SDS011;14425;56.136;40.360;2023-11-18T06:21:19;7.78;;;2.60;;
26486;SDS011;14425;56.136;40.360;2023-11-18T06:23:45;8.80;;;3.20;;
26486;SDS011;14425;56.136;40.360;2023-11-18T06:26:12;4.65;;;2.28;;
26486;SDS011;14425;56.136;40.360;2023-11-18T06:28:39;14.45;;;2.85;;
26486;SDS011;14425;56.136;40.360;2023-11-18T06:31:05;7.55;;;3.20;;
26486;SDS011;14425;56.136;40.360;2023-11-18T06:33:37;6.28;;;3.17;;
26486;SDS011;14425;56.136;40.360;2023-11-18T06:36:04;7.68;;;2.95;;
26486;SDS011;14425;56.136;40.360;2023-11-18T06:38:29;5.65;;;3.38;;
26486;SDS011;14425;56.136;40.360;2023-11-18T06:40:55;10.43;;;5.30;;
26486;SDS011;14425;56.136;40.360;2023-11-18T06:43:23;12.52;;;5.93;;
26486;SDS011;14425;56.136;40.360;2023-11-18T06:45:50;19.17;;;6.97;;
26486;SDS011;14425;56.136;40.360;2023-11-18T06:48:16;9.10;;;5.13;;
26486;SDS011;14425;56.136;40.360;2023-11-18T06:50:45;10.48;;;5.68;;
26486;SDS011;14425;56.136;40.360;2023-11-18T06:53:11;16.33;;;5.18;;
26486;SDS011;14425;56.136;40.360;2023-11-18T06:55:37;8.77;;;4.85;;
26486;SDS011;14425;56.136;40.360;2023-11-18T06:58:02;10.65;;;4.57;;
26486;SDS011;14425;56.136;40.360;2023-11-18T07:00:28;21.38;;;8.95;;
26486;SDS011;14425;56.136;40.360;2023-11-18T07:02:57;18.48;;;8.48;;
26486;SDS011;14425;56.136;40.360;2023-11-18T07:05:23;11.35;;;6.55;;
26486;SDS011;14425;56.136;40.360;2023-11-18T07:07:50;16.48;;;6.75;;
26486;SDS011;14425;56.136;40.360;2023-11-18T07:10:16;17.85;;;5.32;;
26486;SDS011;14425;56.136;40.360;2023-11-18T07:12:46;39.03;;;6.38;;
26486;SDS011;14425;56.136;40.360;2023-11-18T07:15:13;8.35;;;4.50;;
26486;SDS011;14425;56.136;40.360;2023-11-18T07:17:39;6.13;;;3.70;;
26486;SDS011;14425;56.136;40.360;2023-11-18T07:20:04;7.82;;;3.30;;
26486;SDS011;14425;56.136;40.360;2023-11-18T07:22:31;7.60;;;2.90;;
26486;SDS011;14425;56.136;40.360;2023-11-18T07:24:56;3.72;;;2.30;;
26486;SDS011;14425;56.136;40.360;2023-11-18T07:27:22;4.60;;;2.45;;
26486;SDS011;14425;56.136;40.360;2023-11-18T07:29:48;9.25;;;2.92;;
26486;SDS011;14425;56.136;40.360;2023-11-18T07:32:13;8.15;;;3.47;;
26486;SDS011;14425;56.136;40.360;2023-11-18T07:34:39;6.13;;;3.20;;
26486;SDS011;14425;56.136;40.360;2023-11-18T07:37:06;4.85;;;2.58;;
26486;SDS011;14425;56.136;40.360;2023-11-18T07:39:33;5.65;;;2.15;;
26486;SDS011;14425;56.136;40.360;2023-11-18T07:42:13;3.55;;;2.10;;
26486;SDS011;14425;56.136;40.360;2023-11-18T07:44:40;9.43;;;2.17;;
26486;SDS011;14425;56.136;40.360;2023-11-18T07:47:05;6.38;;;2.03;;
26486;SDS011;14425;56.136;40.360;2023-11-18T07:49:34;4.10;;;2.22;;
26486;SDS011;14425;56.136;40.360;2023-11-18T07:52:03;3.17;;;2.08;;
26486;SDS011;14425;56.136;40.360;2023-11-18T07:54:29;16.52;;;7.80;;
26486;SDS011;14425;56.136;40.360;2023-11-18T07:56:54;5.68;;;3.17;;
26486;SDS011;14425;56.136;40.360;2023-11-18T07:59:20;5.40;;;3.05;;
26486;SDS011;14425;56.136;40.360;2023-11-18T08:01:45;6.53;;;3.67;;
26486;SDS011;14425;56.136;40.360;2023-11-18T08:04:14;5.75;;;3.40;;
26486;SDS011;14425;56.136;40.360;2023-11-18T08:06:40;8.55;;;3.55;;
26486;SDS011;14425;56.136;40.360;2023-11-18T08:09:06;5.60;;;3.60;;
26486;SDS011;14425;56.136;40.360;2023-11-18T08:11:39;4.95;;;3.53;;
26486;SDS011;14425;56.136;40.360;2023-11-18T08:14:09;10.02;;;3.03;;
26486;SDS011;14425;56.136;40.360;2023-11-18T08:16:34;2.80;;;2.42;;
26486;SDS011;14425;56.136;40.360;2023-11-18T08:19:01;5.18;;;2.15;;
26486;SDS011;14425;56.136;40.360;2023-11-18T08:21:31;3.30;;;2.28;;
26486;SDS011;14425;56.136;40.360;2023-11-18T08:23:56;3.50;;;2.15;;
26486;SDS011;14425;56.136;40.360;2023-11-18T08:26:24;6.30;;;3.13;;
26486;SDS011;14425;56.136;40.360;2023-11-18T08:28:49;3.00;;;2.30;;
26486;SDS011;14425;56.136;40.360;2023-11-18T08:31:14;7.05;;;4.35;;
26486;SDS011;14425;56.136;40.360;2023-11-18T08:33:43;4.35;;;2.72;;
26486;SDS011;14425;56.136;40.360;2023-11-18T08:36:08;4.25;;;2.63;;
26486;SDS011;14425;56.136;40.360;2023-11-18T08:38:34;3.50;;;2.22;;
26486;SDS011;14425;56.136;40.360;2023-11-18T08:41:00;6.20;;;2.90;;
26486;SDS011;14425;56.136;40.360;2023-11-18T08:43:26;5.90;;;2.83;;
26486;SDS011;14425;56.136;40.360;2023-11-18T08:45:54;6.03;;;2.67;;
26486;SDS011;14425;56.136;40.360;2023-11-18T08:48:21;7.13;;;3.75;;
26486;SDS011;14425;56.136;40.360;2023-11-18T08:50:48;17.15;;;9.80;;
26486;SDS011;14425;56.136;40.360;2023-11-18T08:53:13;6.20;;;2.22;;
26486;SDS011;14425;56.136;40.360;2023-11-18T08:55:43;4.85;;;2.08;;
26486;SDS011;14425;56.136;40.360;2023-11-18T08:58:16;2.58;;;1.90;;
26486;SDS011;14425;56.136;40.360;2023-11-18T09:00:46;3.42;;;2.05;;
26486;SDS011;14425;56.136;40.360;2023-11-18T09:03:14;3.88;;;2.03;;
26486;SDS011;14425;56.136;40.360;2023-11-18T09:05:46;9.95;;;1.75;;
26486;SDS011;14425;56.136;40.360;2023-11-18T09:08:35;7.95;;;2.70;;
26486;SDS011;14425;56.136;40.360;2023-11-18T09:11:02;5.75;;;3.08;;
26486;SDS011;14425;56.136;40.360;2023-11-18T09:13:28;5.45;;;3.03;;
26486;SDS011;14425;56.136;40.360;2023-11-18T09:15:57;5.68;;;2.58;;
26486;SDS011;14425;56.136;40.360;2023-11-18T09:18:28;7.88;;;2.90;;
26486;SDS011;14425;56.136;40.360;2023-11-18T09:20:56;5.53;;;3.30;;
26486;SDS011;14425;56.136;40.360;2023-11-18T09:23:25;5.78;;;3.33;;
26486;SDS011;14425;56.136;40.360;2023-11-18T09:25:53;7.72;;;2.90;;
26486;SDS011;14425;56.136;40.360;2023-11-18T09:28:19;12.75;;;3.83;;
26486;SDS011;14425;56.136;40.360;2023-11-18T09:30:45;7.47;;;3.50;;
26486;SDS011;14425;56.136;40.360;2023-11-18T09:33:19;4.85;;;2.10;;
26486;SDS011;14425;56.136;40.360;2023-11-18T09:35:53;16.27;;;3.20;;
26486;SDS011;14425;56.136;40.360;2023-11-18T09:38:31;4.43;;;2.78;;
26486;SDS011;14425;56.136;40.360;2023-11-18T09:40:58;11.88;;;3.33;;
26486;SDS011;14425;56.136;40.360;2023-11-18T09:43:33;5.50;;;3.08;;
26486;SDS011;14425;56.136;40.360;2023-11-18T09:46:03;5.97;;;3.05;;
26486;SDS011;14425;56.136;40.360;2023-11-18T09:48:29;6.05;;;3.40;;
26486;SDS011;14425;56.136;40.360;2023-11-18T09:50:54;5.28;;;3.40;;
26486;SDS011;14425;56.136;40.360;2023-11-18T09:53:22;4.35;;;2.78;;
26486;SDS011;14425;56.136;40.360;2023-11-18T09:55:59;6.68;;;2.95;;
26486;SDS011;14425;56.136;40.360;2023-11-18T09:58:30;8.18;;;2.63;;
26486;SDS011;14425;56.136;40.360;2023-11-18T10:00:59;4.32;;;2.35;;
26486;SDS011;14425;56.136;40.360;2023-11-18T10:03:28;7.05;;;2.97;;
26486;SDS011;14425;56.136;40.360;2023-11-18T10:05:54;6.53;;;2.97;;
26486;SDS011;14425;56.136;40.360;2023-11-18T10:08:20;6.22;;;2.63;;
26486;SDS011;14425;56.136;40.360;2023-11-18T10:10:51;6.47;;;3.43;;
26486;SDS011;14425;56.136;40.360;2023-11-18T10:13:16;8.55;;;4.22;;
26486;SDS011;14425;56.136;40.360;2023-11-18T10:15:47;6.95;;;3.13;;
26486;SDS011;14425;56.136;40.360;2023-11-18T10:18:17;6.07;;;3.60;;
26486;SDS011;14425;56.136;40.360;2023-11-18T10:20:49;7.55;;;3.75;;
26486;SDS011;14425;56.136;40.360;2023-11-18T10:23:19;11.90;;;3.63;;
26486;SDS011;14425;56.136;40.360;2023-11-18T10:25:52;4.78;;;3.00;;
26486;SDS011;14425;56.136;40.360;2023-11-18T10:28:34;5.47;;;3.75;;
26486;SDS011;14425;56.136;40.360;2023-11-18T10:31:02;8.23;;;3.42;;
26486;SDS011;14425;56.136;40.360;2023-11-18T10:33:32;7.03;;;3.88;;
26486;SDS011;14425;56.136;40.360;2023-11-18T10:35:59;7.47;;;3.53;;
26486;SDS011;14425;56.136;40.360;2023-11-18T10:38:29;4.85;;;3.20;;
26486;SDS011;14425;56.136;40.360;2023-11-18T10:40:55;5.32;;;2.75;;
26486;SDS011;14425;56.136;40.360;2023-11-18T10:43:21;5.57;;;4.05;;
26486;SDS011;14425;56.136;40.360;2023-11-18T10:45:53;8.82;;;4.40;;
26486;SDS011;14425;56.136;40.360;2023-11-18T10:48:28;6.05;;;3.78;;
26486;SDS011;14425;56.136;40.360;2023-11-18T10:50:55;15.30;;;4.72;;
26486;SDS011;14425;56.136;40.360;2023-11-18T10:53:23;7.75;;;4.07;;
26486;SDS011;14425;56.136;40.360;2023-11-18T10:55:48;6.32;;;3.60;;
26486;SDS011;14425;56.136;40.360;2023-11-18T10:58:15;9.27;;;5.28;;
26486;SDS011;14425;56.136;40.360;2023-11-18T11:00:47;8.73;;;3.80;;
26486;SDS011;14425;56.136;40.360;2023-11-18T11:03:14;4.90;;;3.85;;
26486;SDS011;14425;56.136;40.360;2023-11-18T11:05:40;9.25;;;3.38;;
26486;SDS011;14425;56.136;40.360;2023-11-18T11:08:08;7.78;;;4.32;;
26486;SDS011;14425;56.136;40.360;2023-11-18T11:10:33;8.10;;;4.60;;
26486;SDS011;14425;56.136;40.360;2023-11-18T11:13:01;6.97;;;4.45;;
26486;SDS011;14425;56.136;40.360;2023-11-18T11:15:33;8.70;;;4.78;;
26486;SDS011;14425;56.136;40.360;2023-11-18T11:18:07;8.65;;;4.93;;
26486;SDS011;14425;56.136;40.360;2023-11-18T11:20:42;12.60;;;7.80;;
26486;SDS011;14425;56.136;40.360;2023-11-18T11:23:18;15.13;;;10.70;;
26486;SDS011;14425;56.136;40.360;2023-11-18T11:28:26;12.82;;;7.15;;
26486;SDS011;14425;56.136;40.360;2023-11-18T11:30:55;8.68;;;6.13;;
26486;SDS011;14425;56.136;40.360;2023-11-18T11:33:36;11.52;;;6.53;;
26486;SDS011;14425;56.136;40.360;2023-11-18T11:36:09;9.10;;;5.68;;
26486;SDS011;14425;56.136;40.360;2023-11-18T11:38:37;7.60;;;5.22;;
26486;SDS011;14425;56.136;40.360;2023-11-18T11:41:02;9.20;;;5.60;;
26486;SDS011;14425;56.136;40.360;2023-11-18T11:46:00;7.22;;;4.78;;
26486;SDS011;14425;56.136;40.360;2023-11-18T11:48:28;6.90;;;4.57;;
26486;SDS011;14425;56.136;40.360;2023-11-18T11:53:34;5.05;;;3.40;;
26486;SDS011;14425;56.136;40.360;2023-11-18T11:56:02;6.28;;;3.88;;
26486;SDS011;14425;56.136;40.360;2023-11-18T11:58:39;7.78;;;3.03;;
26486;SDS011;14425;56.136;40.360;2023-11-18T12:01:15;5.78;;;3.00;;
26486;SDS011;14425;56.136;40.360;2023-11-18T12:03:43;5.95;;;3.13;;
26486;SDS011;14425;56.136;40.360;2023-11-18T12:06:13;11.88;;;4.40;;
26486;SDS011;14425;56.136;40.360;2023-11-18T12:08:41;4.95;;;3.00;;
26486;SDS011;14425;56.136;40.360;2023-11-18T12:11:07;14.55;;;4.32;;
26486;SDS011;14425;56.136;40.360;2023-11-18T12:13:37;6.57;;;3.08;;
26486;SDS011;14425;56.136;40.360;2023-11-18T12:16:05;7.30;;;3.00;;
26486;SDS011;14425;56.136;40.360;2023-11-18T12:18:35;4.00;;;2.85;;
26486;SDS011;14425;56.136;40.360;2023-11-18T12:21:02;5.30;;;3.13;;
26486;SDS011;14425;56.136;40.360;2023-11-18T12:23:29;9.00;;;3.75;;
26486;SDS011;14425;56.136;40.360;2023-11-18T12:25:56;6.18;;;3.15;;
26486;SDS011;14425;56.136;40.360;2023-11-18T12:28:29;9.73;;;3.97;;
26486;SDS011;14425;56.136;40.360;2023-11-18T12:31:01;6.82;;;3.10;;
26486;SDS011;14425;56.136;40.360;2023-11-18T12:34:16;6.78;;;2.70;;
26486;SDS011;14425;56.136;40.360;2023-11-18T12:41:27;10.57;;;4.00;;
26486;SDS011;14425;56.136;40.360;2023-11-18T12:49:14;6.97;;;3.95;;
26486;SDS011;14425;56.136;40.360;2023-11-18T12:51:48;8.52;;;5.30;;
26486;SDS011;14425;56.136;40.360;2023-11-18T12:54:15;9.07;;;4.45;;
26486;SDS011;14425;56.136;40.360;2023-11-18T12:56:41;8.65;;;4.15;;
26486;SDS011;14425;56.136;40.360;2023-11-18T12:59:17;10.93;;;4.72;;
26486;SDS011;14425;56.136;40.360;2023-11-18T13:01:52;14.05;;;5.57;;
26486;SDS011;14425;56.136;40.360;2023-11-18T13:04:22;11.98;;;5.00;;
26486;SDS011;14425;56.136;40.360;2023-11-18T13:06:52;13.80;;;6.07;;
26486;SDS011;14425;56.136;40.360;2023-11-18T13:09:18;16.42;;;7.38;;
26486;SDS011;14425;56.136;40.360;2023-11-18T13:12:01;19.70;;;7.78;;
26486;SDS011;14425;56.136;40.360;2023-11-18T13:14:31;11.40;;;6.13;;
26486;SDS011;14425;56.136;40.360;2023-11-18T13:17:04;11.38;;;5.47;;
26486;SDS011;14425;56.136;40.360;2023-11-18T13:19:31;12.25;;;5.35;;
26486;SDS011;14425;56.136;40.360;2023-11-18T13:22:06;9.98;;;5.32;;
26486;SDS011;14425;56.136;40.360;2023-11-18T13:24:36;10.35;;;5.90;;
26486;SDS011;14425;56.136;40.360;2023-11-18T13:27:10;14.23;;;7.30;;
26486;SDS011;14425;56.136;40.360;2023-11-18T13:29:38;10.98;;;5.63;;
26486;SDS011;14425;56.136;40.360;2023-11-18T13:32:07;8.90;;;5.72;;
26486;SDS011;14425;56.136;40.360;2023-11-18T13:34:35;12.63;;;5.75;;
26486;SDS011;14425;56.136;40.360;2023-11-18T13:37:06;14.43;;;6.38;;
26486;SDS011;14425;56.136;40.360;2023-11-18T13:39:32;14.07;;;6.75;;
26486;SDS011;14425;56.136;40.360;2023-11-18T13:41:58;15.07;;;6.97;;
26486;SDS011;14425;56.136;40.360;2023-11-18T13:44:43;12.25;;;6.35;;
26486;SDS011;14425;56.136;40.360;2023-11-18T13:47:09;20.67;;;7.40;;
26486;SDS011;14425;56.136;40.360;2023-11-18T13:49:37;13.77;;;6.75;;
26486;SDS011;14425;56.136;40.360;2023-11-18T13:52:05;15.82;;;6.50;;
26486;SDS011;14425;56.136;40.360;2023-11-18T13:54:32;11.80;;;5.68;;
26486;SDS011;14425;56.136;40.360;2023-11-18T13:56:58;10.80;;;6.07;;
26486;SDS011;14425;56.136;40.360;2023-11-18T13:59:27;12.70;;;6.43;;
26486;SDS011;14425;56.136;40.360;2023-11-18T14:01:56;10.48;;;6.60;;
26486;SDS011;14425;56.136;40.360;2023-11-18T14:04:22;12.50;;;6.07;;
26486;SDS011;14425;56.136;40.360;2023-11-18T14:06:51;15.85;;;6.60;;
26486;SDS011;14425;56.136;40.360;2023-11-18T14:09:17;14.32;;;6.95;;
26486;SDS011;14425;56.136;40.360;2023-11-18T14:11:49;12.48;;;6.53;;
26486;SDS011;14425;56.136;40.360;2023-11-18T14:14:14;16.27;;;8.18;;
26486;SDS011;14425;56.136;40.360;2023-11-18T14:16:40;14.93;;;7.75;;
26486;SDS011;14425;56.136;40.360;2023-11-18T14:19:05;17.10;;;9.80;;
26486;SDS011;14425;56.136;40.360;2023-11-18T14:21:31;28.70;;;14.30;;
26486;SDS011;14425;56.136;40.360;2023-11-18T14:23:57;16.95;;;8.90;;
26486;SDS011;14425;56.136;40.360;2023-11-18T14:26:25;22.88;;;9.10;;
26486;SDS011;14425;56.136;40.360;2023-11-18T14:28:52;15.77;;;9.35;;
26486;SDS011;14425;56.136;40.360;2023-11-18T14:31:17;17.65;;;10.75;;
26486;SDS011;14425;56.136;40.360;2023-11-18T14:33:43;16.40;;;8.57;;
26486;SDS011;14425;56.136;40.360;2023-11-18T14:36:09;15.30;;;8.50;;
26486;SDS011;14425;56.136;40.360;2023-11-18T14:38:34;18.48;;;8.57;;
26486;SDS011;14425;56.136;40.360;2023-11-18T14:41:03;17.55;;;9.05;;
26486;SDS011;14425;56.136;40.360;2023-11-18T14:43:29;16.10;;;7.88;;
26486;SDS011;14425;56.136;40.360;2023-11-18T14:45:55;20.80;;;8.10;;
26486;SDS011;14425;56.136;40.360;2023-11-18T14:48:20;16.20;;;9.32;;
26486;SDS011;14425;56.136;40.360;2023-11-18T14:50:46;13.75;;;7.70;;
26486;SDS011;14425;56.136;40.360;2023-11-18T14:53:12;11.23;;;6.55;;
26486;SDS011;14425;56.136;40.360;2023-11-18T14:55:38;12.18;;;6.55;;